createdAt,value
2018-05-31T00:00:03.602Z,18.39
2018-05-31T00:01:03.916Z,18.38
2018-05-31T00:02:03.556Z,18.38
2018-05-31T00:03:03.600Z,18.33
2018-05-31T00:04:03.536Z,18.34
2018-05-31T00:06:03.512Z,18.31
2018-05-31T00:07:03.875Z,18.33
2018-05-31T00:08:03.484Z,18.23
2018-05-31T00:09:03.474Z,18.18
2018-05-31T00:10:03.460Z,18.28
2018-05-31T00:11:03.453Z,18.23
2018-05-31T00:12:03.498Z,18.17
2018-05-31T00:13:03.928Z,18.15
2018-05-31T00:14:03.416Z,18.12
2018-05-31T00:15:03.402Z,18.15
2018-05-31T00:16:03.390Z,18.17
2018-05-31T00:17:03.393Z,18.05
2018-05-31T00:18:03.376Z,18.13
2018-05-31T00:19:03.722Z,18.08
2018-05-31T00:20:03.450Z,18.03
2018-05-31T00:21:03.395Z,17.96
2018-05-31T00:22:03.326Z,18.01
2018-05-31T00:23:03.320Z,18.03
2018-05-31T00:24:03.306Z,18.05
2018-05-31T00:25:03.645Z,18.02
2018-05-31T00:26:03.286Z,18.09
2018-05-31T00:27:03.268Z,18.11
2018-05-31T00:28:03.251Z,18.09
2018-05-31T00:29:03.250Z,18.09
2018-05-31T00:30:04.317Z,18.06
2018-05-31T00:31:07.153Z,18.13
2018-05-31T00:32:06.020Z,18.08
2018-05-31T00:33:03.195Z,18.03
2018-05-31T00:34:03.263Z,18.09
2018-05-31T00:35:03.175Z,17.99
2018-05-31T00:36:03.173Z,17.96
2018-05-31T00:37:03.204Z,17.96
2018-05-31T00:38:03.440Z,17.99
2018-05-31T00:39:03.236Z,18.01
2018-05-31T00:40:03.221Z,17.91
2018-05-31T00:41:03.216Z,17.88
2018-05-31T00:42:03.200Z,17.94
2018-05-31T00:43:03.132Z,17.88
2018-05-31T00:44:03.065Z,17.90
2018-05-31T00:45:03.353Z,17.91
2018-05-31T00:46:03.042Z,17.88
2018-05-31T00:47:03.033Z,17.93
2018-05-31T00:48:03.021Z,17.94
2018-05-31T00:49:03.061Z,17.97
2018-05-31T00:50:03.083Z,17.97
2018-05-31T00:51:02.996Z,17.99
2018-05-31T00:52:03.272Z,17.91
2018-05-31T00:53:02.968Z,17.97
2018-05-31T00:54:02.949Z,17.87
2018-05-31T00:55:03.000Z,18.03
2018-05-31T00:56:02.924Z,17.91
2018-05-31T00:57:02.913Z,17.99
2018-05-31T00:58:02.901Z,18.02
2018-05-31T00:59:03.204Z,17.93
2018-05-31T01:00:02.877Z,17.88
2018-05-31T01:01:02.915Z,17.94
2018-05-31T01:02:02.865Z,17.83
2018-05-31T01:03:02.841Z,17.88
2018-05-31T01:04:02.834Z,17.81
2018-05-31T01:05:02.826Z,17.84
2018-05-31T01:06:03.113Z,17.73
2018-05-31T01:07:02.852Z,17.69
2018-05-31T01:08:02.802Z,17.66
2018-05-31T01:09:02.796Z,17.59
2018-05-31T01:10:02.765Z,17.62
2018-05-31T01:12:02.740Z,17.46
2018-05-31T01:13:03.086Z,17.45
2018-05-31T01:14:02.713Z,17.43
2018-05-31T01:15:02.714Z,17.49
2018-05-31T01:16:02.690Z,17.50
2018-05-31T01:17:02.749Z,17.49
2018-05-31T01:18:02.724Z,17.56
2018-05-31T01:19:02.711Z,17.54
2018-05-31T01:20:02.950Z,17.45
2018-05-31T01:21:02.639Z,17.46
2018-05-31T01:22:02.618Z,17.37
2018-05-31T01:23:02.606Z,17.53
2018-05-31T01:24:02.596Z,17.43
2018-05-31T01:25:02.645Z,17.43
2018-05-31T01:26:02.874Z,17.38
2018-05-31T01:27:02.563Z,17.41
2018-05-31T01:28:02.549Z,17.39
2018-05-31T01:29:02.534Z,17.39
2018-05-31T01:30:02.588Z,17.38
2018-05-31T01:31:02.559Z,17.34
2018-05-31T01:32:02.939Z,17.41
2018-05-31T01:33:02.555Z,17.22
2018-05-31T01:34:02.479Z,17.28
2018-05-31T01:35:02.468Z,17.22
2018-05-31T01:36:02.458Z,17.24
2018-05-31T01:37:02.513Z,17.10
2018-05-31T01:39:02.470Z,17.01
2018-05-31T01:40:02.407Z,16.99
2018-05-31T01:41:02.397Z,17.06
2018-05-31T01:42:02.380Z,16.99
2018-05-31T01:43:02.419Z,17.06
2018-05-31T01:44:02.656Z,17.06
2018-05-31T01:45:02.347Z,16.95
2018-05-31T01:46:02.335Z,16.95
2018-05-31T01:47:02.319Z,16.94
2018-05-31T01:48:02.304Z,16.80
2018-05-31T01:49:02.623Z,16.91
2018-05-31T01:50:02.584Z,16.88
2018-05-31T01:51:02.296Z,16.88
2018-05-31T01:52:02.266Z,16.94
2018-05-31T01:53:02.251Z,16.76
2018-05-31T01:54:02.235Z,16.83
2018-05-31T01:55:02.276Z,16.94
2018-05-31T01:56:02.511Z,16.94
2018-05-31T01:57:02.213Z,16.84
2018-05-31T01:58:02.182Z,16.91
2018-05-31T01:59:02.174Z,16.88
2018-05-31T02:00:02.173Z,16.94
2018-05-31T02:01:02.201Z,16.94
2018-05-31T02:02:02.441Z,16.95
2018-05-31T02:03:02.125Z,16.87
2018-05-31T02:04:02.113Z,16.76
2018-05-31T02:05:02.099Z,16.94
2018-05-31T02:06:02.091Z,16.79
2018-05-31T02:07:02.126Z,16.90
2018-05-31T02:08:02.206Z,16.79
2018-05-31T02:09:02.465Z,16.79
2018-05-31T02:10:02.424Z,16.74
2018-05-31T02:11:02.147Z,16.77
2018-05-31T02:12:02.128Z,16.80
2018-05-31T02:13:02.195Z,16.80
2018-05-31T02:14:01.987Z,16.73
2018-05-31T02:16:02.268Z,16.74
2018-05-31T02:17:01.948Z,16.87
2018-05-31T02:18:03.169Z,16.84
2018-05-31T02:19:02.001Z,16.88
2018-05-31T02:20:01.925Z,16.82
2018-05-31T02:21:01.902Z,16.70
2018-05-31T02:22:01.897Z,16.77
2018-05-31T02:23:02.183Z,16.79
2018-05-31T02:24:01.866Z,16.83
2018-05-31T02:25:01.915Z,16.83
2018-05-31T02:26:01.846Z,16.83
2018-05-31T02:27:01.832Z,16.82
2018-05-31T02:28:01.811Z,16.79
2018-05-31T02:29:01.800Z,16.84
2018-05-31T02:30:02.123Z,16.82
2018-05-31T02:31:01.823Z,16.80
2018-05-31T02:32:01.858Z,16.83
2018-05-31T02:33:01.787Z,16.79
2018-05-31T02:34:01.737Z,16.79
2018-05-31T02:35:01.724Z,16.80
2018-05-31T02:36:01.710Z,16.72
2018-05-31T02:37:02.050Z,16.62
2018-05-31T02:38:01.775Z,16.64
2018-05-31T02:39:01.751Z,16.69
2018-05-31T02:40:01.739Z,16.67
2018-05-31T02:41:01.738Z,16.74
2018-05-31T02:43:01.977Z,16.69
2018-05-31T02:44:01.619Z,16.69
2018-05-31T02:45:01.667Z,16.80
2018-05-31T02:47:01.578Z,16.70
2018-05-31T02:48:01.566Z,16.80
2018-05-31T02:49:01.754Z,16.79
2018-05-31T02:50:01.845Z,16.77
2018-05-31T02:51:01.530Z,16.79
2018-05-31T02:52:01.519Z,16.77
2018-05-31T02:53:01.528Z,16.74
2018-05-31T02:54:01.491Z,16.70
2018-05-31T02:55:01.836Z,16.70
2018-05-31T02:56:01.772Z,16.73
2018-05-31T02:57:01.449Z,16.74
2018-05-31T02:58:01.436Z,16.77
2018-05-31T02:59:01.422Z,16.69
2018-05-31T03:00:01.425Z,16.73
2018-05-31T03:01:01.558Z,16.72
2018-05-31T03:02:01.687Z,16.72
2018-05-31T03:03:01.376Z,16.74
2018-05-31T03:04:01.361Z,16.73
2018-05-31T03:05:01.354Z,16.70
2018-05-31T03:06:01.439Z,16.76
2018-05-31T03:07:01.546Z,16.72
2018-05-31T03:08:01.717Z,16.72
2018-05-31T03:09:01.409Z,16.69
2018-05-31T03:10:01.393Z,16.69
2018-05-31T03:11:01.390Z,16.69
2018-05-31T03:12:01.373Z,16.69
2018-05-31T03:13:01.432Z,16.65
2018-05-31T03:15:01.642Z,16.69
2018-05-31T03:16:01.318Z,16.73
2018-05-31T03:17:01.309Z,16.65
2018-05-31T03:18:01.191Z,16.70
2018-05-31T03:19:01.224Z,16.65
2018-05-31T03:20:01.165Z,16.58
2018-05-31T03:21:01.453Z,16.57
2018-05-31T03:22:01.138Z,16.58
2018-05-31T03:23:01.127Z,16.58
2018-05-31T03:24:01.305Z,16.61
2018-05-31T03:25:01.159Z,16.54
2018-05-31T03:26:01.094Z,16.51
2018-05-31T03:27:01.381Z,16.55
2018-05-31T03:28:01.058Z,16.54
2018-05-31T03:29:01.051Z,16.43
2018-05-31T03:30:01.117Z,16.52
2018-05-31T03:31:01.156Z,16.44
2018-05-31T03:32:01.021Z,16.44
2018-05-31T03:33:01.301Z,16.42
2018-05-31T03:34:00.991Z,16.42
2018-05-31T03:35:00.971Z,16.44
2018-05-31T03:36:00.971Z,16.43
2018-05-31T03:37:00.998Z,16.44
2018-05-31T03:38:00.936Z,16.43
2018-05-31T03:39:00.964Z,16.37
2018-05-31T03:40:01.215Z,16.43
2018-05-31T03:41:00.896Z,16.43
2018-05-31T03:42:00.892Z,16.47
2018-05-31T03:43:00.925Z,16.34
2018-05-31T03:44:00.865Z,16.43
2018-05-31T03:45:00.848Z,16.37
2018-05-31T03:46:00.834Z,16.52
2018-05-31T03:47:01.135Z,16.44
2018-05-31T03:48:00.808Z,16.39
2018-05-31T03:49:00.853Z,16.44
2018-05-31T03:51:00.772Z,16.46
2018-05-31T03:52:00.763Z,16.40
2018-05-31T03:53:00.753Z,16.47
2018-05-31T03:54:01.216Z,16.43
2018-05-31T03:55:00.781Z,16.44
2018-05-31T03:56:00.835Z,16.37
2018-05-31T03:58:01.006Z,16.40
2018-05-31T04:00:01.038Z,16.44
2018-05-31T04:01:00.706Z,16.47
2018-05-31T04:02:00.637Z,16.46
2018-05-31T04:03:00.627Z,16.55
2018-05-31T04:05:00.604Z,16.64
2018-05-31T04:06:00.695Z,16.67
2018-05-31T04:07:00.926Z,16.76
2018-05-31T04:08:00.569Z,16.80
2018-05-31T04:09:00.552Z,16.83
2018-05-31T04:10:00.542Z,17.01
2018-05-31T04:11:00.631Z,17.04
2018-05-31T04:12:00.516Z,16.87
2018-05-31T04:13:00.602Z,16.95
2018-05-31T04:14:00.796Z,16.99
2018-05-31T04:15:00.475Z,17.01
2018-05-31T04:16:00.463Z,17.10
2018-05-31T04:17:00.447Z,17.14
2018-05-31T04:18:00.496Z,17.17
2018-05-31T04:19:00.471Z,17.24
2018-05-31T04:20:00.535Z,17.22
2018-05-31T04:21:00.696Z,17.31
2018-05-31T04:22:00.384Z,17.37
2018-05-31T04:23:00.379Z,17.24
2018-05-31T04:24:00.370Z,17.39
2018-05-31T04:25:00.404Z,17.43
2018-05-31T04:26:00.344Z,17.41
2018-05-31T04:27:00.625Z,17.46
2018-05-31T04:28:00.322Z,17.49
2018-05-31T04:29:00.301Z,17.43
2018-05-31T04:30:00.299Z,17.49
2018-05-31T04:31:00.344Z,17.46
2018-05-31T04:32:00.290Z,17.54
2018-05-31T04:33:00.563Z,17.57
2018-05-31T04:35:00.235Z,17.66
2018-05-31T04:36:00.234Z,17.63
2018-05-31T04:37:00.270Z,17.73
2018-05-31T04:38:00.360Z,17.76
2018-05-31T04:39:00.494Z,17.75
2018-05-31T04:40:00.168Z,17.81
2018-05-31T04:41:00.156Z,17.86
2018-05-31T04:42:00.148Z,17.86
2018-05-31T04:43:00.225Z,17.90
2018-05-31T04:44:00.129Z,17.97
2018-05-31T04:45:00.417Z,17.99
2018-05-31T04:46:00.096Z,18.06
2018-05-31T04:47:00.089Z,18.08
2018-05-31T04:48:00.074Z,18.17
2018-05-31T04:49:00.112Z,18.18
2018-05-31T04:50:00.048Z,18.12
2018-05-31T04:51:00.342Z,18.15
2018-05-31T04:52:00.032Z,18.26
2018-05-31T04:53:00.022Z,18.21
2018-05-31T04:54:00.018Z,18.38
2018-05-31T04:55:00.092Z,18.38
2018-05-31T04:55:59.991Z,18.38
2018-05-31T04:57:00.332Z,18.41
2018-05-31T04:58:00.040Z,18.33
2018-05-31T04:58:59.965Z,18.41
2018-05-31T04:59:59.938Z,18.49
2018-05-31T05:00:59.980Z,18.45
2018-05-31T05:02:00.003Z,18.51
2018-05-31T05:03:00.381Z,18.52
2018-05-31T05:03:59.888Z,18.58
2018-05-31T05:04:59.972Z,18.61
2018-05-31T05:05:59.954Z,18.70
2018-05-31T05:06:59.907Z,18.64
2018-05-31T05:07:59.844Z,18.67
2018-05-31T05:09:00.187Z,18.71
2018-05-31T05:09:59.901Z,18.76
2018-05-31T05:10:59.808Z,18.76
2018-05-31T05:11:59.798Z,18.81
2018-05-31T05:12:59.849Z,18.79
2018-05-31T05:13:59.808Z,18.86
2018-05-31T05:14:59.764Z,18.89
2018-05-31T05:16:00.060Z,18.94
2018-05-31T05:16:59.772Z,18.94
2018-05-31T05:17:59.743Z,18.98
2018-05-31T05:18:59.786Z,19.01
2018-05-31T05:19:59.767Z,19.17
2018-05-31T05:20:59.699Z,19.07
2018-05-31T05:21:59.693Z,19.24
2018-05-31T05:22:59.975Z,19.22
2018-05-31T05:23:59.700Z,19.24
2018-05-31T05:24:59.711Z,19.24
2018-05-31T05:25:59.652Z,19.27
2018-05-31T05:26:59.636Z,19.32
2018-05-31T05:27:59.797Z,19.34
2018-05-31T05:28:59.630Z,19.30
2018-05-31T05:29:59.899Z,19.34
2018-05-31T05:30:59.639Z,19.41
2018-05-31T05:32:00.026Z,19.27
2018-05-31T05:32:59.591Z,19.35
2018-05-31T05:33:59.557Z,19.30
2018-05-31T05:34:59.551Z,19.38
2018-05-31T05:35:59.536Z,19.32
2018-05-31T05:36:59.913Z,19.39
2018-05-31T05:37:59.515Z,19.42
2018-05-31T05:38:59.506Z,19.39
2018-05-31T05:39:59.505Z,19.38
2018-05-31T05:40:59.570Z,19.42
2018-05-31T05:41:59.871Z,19.39
2018-05-31T05:42:59.624Z,19.47
2018-05-31T05:43:59.762Z,19.54
2018-05-31T05:44:59.444Z,19.60
2018-05-31T05:45:59.430Z,19.68
2018-05-31T05:46:59.423Z,19.67
2018-05-31T05:47:59.411Z,19.78
2018-05-31T05:48:59.487Z,19.81
2018-05-31T05:49:59.392Z,19.93
2018-05-31T05:50:59.678Z,19.92
2018-05-31T05:51:59.373Z,19.97
2018-05-31T05:52:59.361Z,19.87
2018-05-31T05:53:59.395Z,19.93
2018-05-31T05:54:59.388Z,19.90
2018-05-31T05:55:59.327Z,19.97
2018-05-31T05:56:59.565Z,20.02
2018-05-31T05:57:59.609Z,20.05
2018-05-31T05:58:59.298Z,20.07
2018-05-31T05:59:59.303Z,20.17
2018-05-31T06:00:59.340Z,20.18
2018-05-31T06:01:59.322Z,20.19
2018-05-31T06:02:59.259Z,20.26
2018-05-31T06:03:59.557Z,20.27
2018-05-31T06:04:59.245Z,20.26
2018-05-31T06:05:59.241Z,20.39
2018-05-31T06:06:59.350Z,20.34
2018-05-31T06:07:59.209Z,20.49
2018-05-31T06:08:59.203Z,20.53
2018-05-31T06:09:59.210Z,20.55
2018-05-31T06:10:59.475Z,20.71
2018-05-31T06:11:59.173Z,20.79
2018-05-31T06:12:59.212Z,20.75
2018-05-31T06:13:59.149Z,20.79
2018-05-31T06:14:59.138Z,20.83
2018-05-31T06:15:59.130Z,20.85
2018-05-31T06:16:59.421Z,20.93
2018-05-31T06:17:59.109Z,20.97
2018-05-31T06:18:59.148Z,21.03
2018-05-31T06:19:59.099Z,21.11
2018-05-31T06:20:59.088Z,21.16
2018-05-31T06:21:59.139Z,21.22
2018-05-31T06:22:59.359Z,21.30
2018-05-31T06:23:59.050Z,21.38
2018-05-31T06:24:59.097Z,21.35
2018-05-31T06:25:59.038Z,21.37
2018-05-31T06:26:59.028Z,21.37
2018-05-31T06:27:59.025Z,21.34
2018-05-31T06:28:59.310Z,21.38
2018-05-31T06:29:59.057Z,21.35
2018-05-31T06:30:59.490Z,21.45
2018-05-31T06:31:58.973Z,21.43
2018-05-31T06:32:59.105Z,21.43
2018-05-31T06:33:59.060Z,21.51
2018-05-31T06:34:58.957Z,21.53
2018-05-31T06:35:59.295Z,21.59
2018-05-31T06:36:58.974Z,21.74
2018-05-31T06:37:59.038Z,21.75
2018-05-31T06:38:59.023Z,21.75
2018-05-31T06:39:59.044Z,21.84
2018-05-31T06:40:59.000Z,21.90
2018-05-31T06:41:59.292Z,21.88
2018-05-31T06:42:59.043Z,21.93
2018-05-31T06:43:58.865Z,22.01
2018-05-31T06:44:58.882Z,22.09
2018-05-31T06:45:58.855Z,22.18
2018-05-31T06:46:58.839Z,22.18
2018-05-31T06:47:59.123Z,22.21
2018-05-31T06:48:58.868Z,22.25
2018-05-31T06:49:58.804Z,22.27
2018-05-31T06:50:58.793Z,22.28
2018-05-31T06:53:59.089Z,22.53
2018-05-31T06:54:58.823Z,22.52
2018-05-31T06:56:58.850Z,22.49
2018-05-31T06:57:59.142Z,22.51
2018-05-31T06:58:58.730Z,22.62
2018-05-31T06:59:58.733Z,22.52
2018-05-31T07:00:59.057Z,22.62
2018-05-31T07:01:58.700Z,22.71
2018-05-31T07:02:58.761Z,22.77
2018-05-31T07:04:58.671Z,22.86
2018-05-31T07:05:58.663Z,22.95
2018-05-31T07:06:58.765Z,23.04
2018-05-31T07:07:58.951Z,22.96
2018-05-31T07:08:58.638Z,22.99
2018-05-31T07:09:58.624Z,23.08
2018-05-31T07:10:58.624Z,23.21
2018-05-31T07:11:58.642Z,23.21
2018-05-31T07:12:58.650Z,23.28
2018-05-31T07:13:58.594Z,23.39
2018-05-31T07:14:58.881Z,23.51
2018-05-31T07:15:58.624Z,23.59
2018-05-31T07:16:59.073Z,23.66
2018-05-31T07:17:58.576Z,23.73
2018-05-31T07:18:58.603Z,23.76
2018-05-31T07:19:58.566Z,23.79
2018-05-31T07:20:58.834Z,23.91
2018-05-31T07:21:58.532Z,23.94
2018-05-31T07:22:58.520Z,23.98
2018-05-31T07:23:58.512Z,24.06
2018-05-31T07:24:58.554Z,24.26
2018-05-31T07:25:58.491Z,24.43
2018-05-31T07:26:58.801Z,24.58
2018-05-31T07:27:58.472Z,24.74
2018-05-31T07:28:58.632Z,24.91
2018-05-31T07:29:58.462Z,25.22
2018-05-31T07:30:58.653Z,25.74
2018-05-31T07:31:58.445Z,26.33
2018-05-31T07:32:58.446Z,26.80
2018-05-31T07:33:58.730Z,27.23
2018-05-31T07:34:58.420Z,27.75
2018-05-31T07:35:58.516Z,28.19
2018-05-31T07:36:58.461Z,28.68
2018-05-31T07:37:58.404Z,29.17
2018-05-31T07:38:58.391Z,29.50
2018-05-31T07:39:58.689Z,29.76
2018-05-31T07:40:58.389Z,30.05
2018-05-31T07:41:58.374Z,30.28
2018-05-31T07:42:58.421Z,30.53
2018-05-31T07:43:58.364Z,30.78
2018-05-31T07:44:58.367Z,31.14
2018-05-31T07:45:58.655Z,31.26
2018-05-31T07:46:58.348Z,31.45
2018-05-31T07:47:58.339Z,31.48
2018-05-31T07:48:58.392Z,31.63
2018-05-31T07:49:58.338Z,31.81
2018-05-31T07:50:58.323Z,31.91
2018-05-31T07:51:58.617Z,31.81
2018-05-31T07:52:58.314Z,31.98
2018-05-31T07:53:58.308Z,32.06
2018-05-31T07:55:58.506Z,32.26
2018-05-31T07:56:58.298Z,32.60
2018-05-31T07:57:58.805Z,32.70
2018-05-31T07:58:58.290Z,32.46
2018-05-31T07:59:58.288Z,32.08
2018-05-31T08:00:58.285Z,32.20
2018-05-31T08:01:58.452Z,32.17
2018-05-31T08:02:58.332Z,32.39
2018-05-31T08:03:58.592Z,32.58
2018-05-31T08:04:58.329Z,32.82
2018-05-31T08:05:58.315Z,33.10
2018-05-31T08:06:58.464Z,33.19
2018-05-31T08:07:58.418Z,33.16
2018-05-31T08:08:58.260Z,33.32
2018-05-31T08:10:58.554Z,33.45
2018-05-31T08:11:58.256Z,33.57
2018-05-31T08:12:58.262Z,33.60
2018-05-31T08:13:58.305Z,33.62
2018-05-31T08:14:58.244Z,33.78
2018-05-31T08:15:58.243Z,33.76
2018-05-31T08:16:58.543Z,34.07
2018-05-31T08:17:58.252Z,34.08
2018-05-31T08:18:58.239Z,34.00
2018-05-31T08:19:58.287Z,34.00
2018-05-31T08:20:58.286Z,34.15
2018-05-31T08:21:58.236Z,34.23
2018-05-31T08:22:58.920Z,34.48
2018-05-31T08:23:58.782Z,34.66
2018-05-31T08:24:58.453Z,34.82
2018-05-31T08:26:58.301Z,35.09
2018-05-31T08:27:58.279Z,35.21
2018-05-31T08:28:58.227Z,34.95
2018-05-31T08:29:58.231Z,34.94
2018-05-31T08:30:58.538Z,35.02
2018-05-31T08:31:58.243Z,35.01
2018-05-31T08:32:58.293Z,35.13
2018-05-31T08:33:58.398Z,35.34
2018-05-31T08:34:58.525Z,35.38
2018-05-31T08:35:58.436Z,35.35
2018-05-31T08:36:58.543Z,35.39
2018-05-31T08:37:58.650Z,35.36
2018-05-31T08:38:58.588Z,35.32
2018-05-31T08:39:58.574Z,35.32
2018-05-31T08:40:58.511Z,35.35
2018-05-31T08:41:58.238Z,35.47
2018-05-31T08:42:58.233Z,35.57
2018-05-31T08:43:58.535Z,35.72
2018-05-31T08:44:58.282Z,35.85
2018-05-31T08:45:58.241Z,36.02
2018-05-31T08:46:58.245Z,36.20
2018-05-31T08:47:58.254Z,36.14
2018-05-31T08:48:58.366Z,36.25
2018-05-31T08:49:58.715Z,36.27
2018-05-31T08:50:58.452Z,36.40
2018-05-31T08:51:58.533Z,36.48
2018-05-31T08:52:58.243Z,36.49
2018-05-31T08:53:58.257Z,36.56
2018-05-31T08:54:58.451Z,36.44
2018-05-31T08:55:58.418Z,36.52
2018-05-31T08:57:00.704Z,36.57
2018-05-31T08:57:58.369Z,36.56
2018-05-31T08:58:58.355Z,36.41
2018-05-31T08:59:58.438Z,36.56
2018-05-31T09:00:58.420Z,36.51
2018-05-31T09:01:58.354Z,36.38
2018-05-31T09:02:58.459Z,36.32
2018-05-31T09:03:58.572Z,36.41
2018-05-31T09:04:58.264Z,36.44
2018-05-31T09:05:58.307Z,36.54
2018-05-31T09:06:58.269Z,36.66
2018-05-31T09:07:58.615Z,36.89
2018-05-31T09:08:58.328Z,36.93
2018-05-31T09:09:59.000Z,36.86
2018-05-31T09:10:58.628Z,36.78
2018-05-31T09:11:58.287Z,36.82
2018-05-31T09:12:58.465Z,36.82
2018-05-31T09:13:59.241Z,36.81
2018-05-31T09:14:58.395Z,37.05
2018-05-31T09:16:58.300Z,37.00
2018-05-31T09:17:58.626Z,37.01
2018-05-31T09:18:58.303Z,37.32
2018-05-31T09:19:58.304Z,37.30
2018-05-31T09:20:58.361Z,37.27
2018-05-31T09:21:58.324Z,37.25
2018-05-31T09:22:58.313Z,37.34
2018-05-31T09:23:58.315Z,37.37
2018-05-31T09:24:58.620Z,37.47
2018-05-31T09:25:58.327Z,37.41
2018-05-31T09:26:58.375Z,37.60
2018-05-31T09:27:58.329Z,37.61
2018-05-31T09:28:58.543Z,37.82
2018-05-31T09:29:58.340Z,37.80
2018-05-31T09:30:58.640Z,37.80
2018-05-31T09:31:58.347Z,37.62
2018-05-31T09:32:58.411Z,37.65
2018-05-31T09:33:58.351Z,37.73
2018-05-31T09:34:58.361Z,37.73
2018-05-31T09:35:58.359Z,37.92
2018-05-31T09:36:58.660Z,37.99
2018-05-31T09:37:58.374Z,38.04
2018-05-31T09:38:58.420Z,38.04
2018-05-31T09:39:58.636Z,37.99
2018-05-31T09:40:58.575Z,37.82
2018-05-31T09:41:58.589Z,37.69
2018-05-31T09:42:58.685Z,37.69
2018-05-31T09:43:58.393Z,37.51
2018-05-31T09:44:58.453Z,37.51
2018-05-31T09:45:58.398Z,37.69
2018-05-31T09:46:58.405Z,37.77
2018-05-31T09:47:58.408Z,37.87
2018-05-31T09:48:58.771Z,37.88
2018-05-31T09:49:58.425Z,37.94
2018-05-31T09:50:58.593Z,37.79
2018-05-31T09:52:58.432Z,37.91
2018-05-31T09:53:58.435Z,38.07
2018-05-31T09:54:58.740Z,38.23
2018-05-31T09:55:58.466Z,38.29
2018-05-31T09:56:58.500Z,37.94
2018-05-31T09:57:58.460Z,37.82
2018-05-31T09:58:58.476Z,37.87
2018-05-31T09:59:58.612Z,37.94
2018-05-31T10:00:58.785Z,37.94
2018-05-31T10:01:58.472Z,37.98
2018-05-31T10:02:58.534Z,37.99
2018-05-31T10:03:58.981Z,37.99
2018-05-31T10:04:58.494Z,38.02
2018-05-31T10:05:58.494Z,37.98
2018-05-31T10:06:59.123Z,37.89
2018-05-31T10:07:58.563Z,38.02
2018-05-31T10:08:58.617Z,38.06
2018-05-31T10:09:58.531Z,38.22
2018-05-31T10:10:58.535Z,38.29
2018-05-31T10:11:58.523Z,38.37
2018-05-31T10:12:58.828Z,38.42
2018-05-31T10:13:58.543Z,38.57
2018-05-31T10:14:58.593Z,38.60
2018-05-31T10:15:58.549Z,38.64
2018-05-31T10:16:58.551Z,38.45
2018-05-31T10:17:58.564Z,38.48
2018-05-31T10:18:58.950Z,38.45
2018-05-31T10:19:58.569Z,38.28
2018-05-31T10:20:58.701Z,38.29
2018-05-31T10:21:58.577Z,38.55
2018-05-31T10:22:58.590Z,38.66
2018-05-31T10:23:58.612Z,38.78
2018-05-31T10:24:58.668Z,38.97
2018-05-31T10:25:58.907Z,39.06
2018-05-31T10:26:58.663Z,39.24
2018-05-31T10:28:01.686Z,39.38
2018-05-31T10:28:58.663Z,39.23
2018-05-31T10:29:58.632Z,39.01
2018-05-31T10:30:58.631Z,38.84
2018-05-31T10:31:58.642Z,38.35
2018-05-31T10:32:59.052Z,38.37
2018-05-31T10:33:58.653Z,38.44
2018-05-31T10:34:58.652Z,38.62
2018-05-31T10:35:58.664Z,38.82
2018-05-31T10:36:58.668Z,38.93
2018-05-31T10:37:58.677Z,38.89
2018-05-31T10:38:59.032Z,38.76
2018-05-31T10:39:58.691Z,38.67
2018-05-31T10:40:58.696Z,38.74
2018-05-31T10:41:58.710Z,38.78
2018-05-31T10:42:58.706Z,38.45
2018-05-31T10:43:58.731Z,38.22
2018-05-31T10:44:58.772Z,37.94
2018-05-31T10:45:59.022Z,37.95
2018-05-31T10:46:58.728Z,38.41
2018-05-31T10:47:58.736Z,38.59
2018-05-31T10:48:58.740Z,38.06
2018-05-31T10:49:58.749Z,38.26
2018-05-31T10:50:58.821Z,38.54
2018-05-31T10:51:59.126Z,38.91
2018-05-31T10:52:58.832Z,38.63
2018-05-31T10:53:58.778Z,38.01
2018-05-31T10:54:58.793Z,37.70
2018-05-31T10:55:58.795Z,36.67
2018-05-31T10:56:58.861Z,36.61
2018-05-31T10:57:59.117Z,36.88
2018-05-31T10:58:58.849Z,37.31
2018-05-31T10:59:58.867Z,37.12
2018-05-31T11:00:58.828Z,36.33
2018-05-31T11:01:58.835Z,36.02
2018-05-31T11:02:58.876Z,36.74
2018-05-31T11:03:59.140Z,37.27
2018-05-31T11:04:58.836Z,37.35
2018-05-31T11:05:58.943Z,37.03
2018-05-31T11:06:58.855Z,36.67
2018-05-31T11:07:58.855Z,35.69
2018-05-31T11:08:58.908Z,35.01
2018-05-31T11:09:59.169Z,35.31
2018-05-31T11:10:58.863Z,35.38
2018-05-31T11:11:58.879Z,35.41
2018-05-31T11:12:58.881Z,35.70
2018-05-31T11:13:58.888Z,35.92
2018-05-31T11:14:58.996Z,36.02
2018-05-31T11:16:59.193Z,35.38
2018-05-31T11:17:59.008Z,34.95
2018-05-31T11:18:59.261Z,34.47
2018-05-31T11:19:59.111Z,34.08
2018-05-31T11:20:59.820Z,34.25
2018-05-31T11:21:59.196Z,35.53
2018-05-31T11:22:59.354Z,36.26
2018-05-31T11:23:59.154Z,36.32
2018-05-31T11:24:58.921Z,36.33
2018-05-31T11:25:58.940Z,36.96
2018-05-31T11:26:58.981Z,37.57
2018-05-31T11:27:59.409Z,38.23
2018-05-31T11:28:59.645Z,38.59
2018-05-31T11:29:59.401Z,38.89
2018-05-31T11:30:59.782Z,39.06
2018-05-31T11:31:59.295Z,39.28
2018-05-31T11:32:59.005Z,39.60
2018-05-31T11:33:58.958Z,39.82
2018-05-31T11:34:59.267Z,39.80
2018-05-31T11:35:58.983Z,39.68
2018-05-31T11:36:58.971Z,39.54
2018-05-31T11:37:58.978Z,39.64
2018-05-31T11:38:59.028Z,39.77
2018-05-31T11:39:58.989Z,39.83
2018-05-31T11:40:58.996Z,38.57
2018-05-31T11:41:59.017Z,36.60
2018-05-31T11:42:59.002Z,36.74
2018-05-31T11:43:59.028Z,37.12
2018-05-31T11:44:59.068Z,37.61
2018-05-31T11:45:59.320Z,38.13
2018-05-31T11:46:59.024Z,37.16
2018-05-31T11:47:59.033Z,36.29
2018-05-31T11:48:59.047Z,35.77
2018-05-31T11:50:59.753Z,37.15
2018-05-31T11:51:59.125Z,37.82
2018-05-31T11:52:59.369Z,37.55
2018-05-31T11:53:59.150Z,37.95
2018-05-31T11:54:59.079Z,38.22
2018-05-31T11:55:59.102Z,38.45
2018-05-31T11:56:59.133Z,38.64
2018-05-31T11:57:59.095Z,37.37
2018-05-31T11:58:59.393Z,37.25
2018-05-31T11:59:59.099Z,37.69
2018-05-31T12:00:59.104Z,38.26
2018-05-31T12:01:59.111Z,38.70
2018-05-31T12:02:59.364Z,38.73
2018-05-31T12:03:59.270Z,38.93
2018-05-31T12:04:59.450Z,39.16
2018-05-31T12:05:59.152Z,39.49
2018-05-31T12:06:59.148Z,39.26
2018-05-31T12:07:59.178Z,38.04
2018-05-31T12:08:59.349Z,37.25
2018-05-31T12:09:59.364Z,36.51
2018-05-31T12:10:59.523Z,36.03
2018-05-31T12:11:59.194Z,36.85
2018-05-31T12:12:59.195Z,37.67
2018-05-31T12:13:59.201Z,38.39
2018-05-31T12:14:59.771Z,38.88
2018-05-31T12:15:59.227Z,39.31
2018-05-31T12:16:59.509Z,39.51
2018-05-31T12:17:59.316Z,38.41
2018-05-31T12:18:59.507Z,37.27
2018-05-31T12:19:59.230Z,36.40
2018-05-31T12:20:59.314Z,35.53
2018-05-31T12:21:59.355Z,35.47
2018-05-31T12:22:59.302Z,35.83
2018-05-31T12:23:59.537Z,36.40
2018-05-31T12:24:59.402Z,36.98
2018-05-31T12:25:59.293Z,37.74
2018-05-31T12:26:59.434Z,38.28
2018-05-31T12:27:59.385Z,37.35
2018-05-31T12:28:59.482Z,36.60
2018-05-31T12:29:59.301Z,37.12
2018-05-31T12:30:59.350Z,37.70
2018-05-31T12:31:59.840Z,38.06
2018-05-31T12:32:59.437Z,38.47
2018-05-31T12:33:59.387Z,37.99
2018-05-31T12:34:59.390Z,37.16
2018-05-31T12:35:59.604Z,36.41
2018-05-31T12:36:59.335Z,36.52
2018-05-31T12:37:59.389Z,37.22
2018-05-31T12:38:59.413Z,37.83
2018-05-31T12:39:59.475Z,38.67
2018-05-31T12:40:59.346Z,39.11
2018-05-31T12:41:59.627Z,39.51
2018-05-31T12:42:59.835Z,39.84
2018-05-31T12:43:59.540Z,39.91
2018-05-31T12:44:59.465Z,38.44
2018-05-31T12:45:59.371Z,37.27
2018-05-31T12:46:59.415Z,37.94
2018-05-31T12:47:59.656Z,38.54
2018-05-31T12:48:59.439Z,39.01
2018-05-31T12:49:59.383Z,39.39
2018-05-31T12:50:59.498Z,39.60
2018-05-31T12:51:59.485Z,39.77
2018-05-31T12:52:59.452Z,39.60
2018-05-31T12:53:59.452Z,39.31
2018-05-31T12:54:59.695Z,39.02
2018-05-31T12:55:59.498Z,38.64
2018-05-31T12:56:59.460Z,38.70
2018-05-31T12:57:59.437Z,39.08
2018-05-31T12:58:59.430Z,39.21
2018-05-31T12:59:59.499Z,39.42
2018-05-31T13:00:59.782Z,39.58
2018-05-31T13:01:59.457Z,39.88
2018-05-31T13:02:59.968Z,40.05
2018-05-31T13:03:59.541Z,40.21
2018-05-31T13:04:59.908Z,40.33
2018-05-31T13:05:59.832Z,40.20
2018-05-31T13:06:59.770Z,39.76
2018-05-31T13:07:59.487Z,39.64
2018-05-31T13:08:59.534Z,39.72
2018-05-31T13:09:59.496Z,39.99
2018-05-31T13:10:59.501Z,40.11
2018-05-31T13:11:59.514Z,40.20
2018-05-31T13:12:59.817Z,40.21
2018-05-31T13:13:59.827Z,40.21
2018-05-31T13:14:59.813Z,40.28